Avon, New York
Current Conditions -  °F | °C
As of 4:54 PM on Friday 31 Oct 2014 (Local Time) from KROC Reporting Station
Overcast Overcast  
Wind Chill: 44°   Ceiling: 3300
Heat Index: 47°   Visibility: 10mi
Dew Point: 41°   Wind: 6mph
Humidity: 80%   Direction: 70°ENE
Pressure: 29.92"   Gusts: NA
Location:  42.91°N, 77.75°W
Report Text: KROC 312054Z 07005KT 10SM BKN033 BKN041 OVC060 08/05 A2992 RMK AO2 RAE00B22E50 SLP139 P0000 60002 T00830050 55001
Loading
Personal Weather Stations






























Interactive Weather Map New forecast layout! Learn more

10-Day Weather Forecast

Advertisements
Track Severe Weather on mobile